Time;durP1;ratioP1;P1;durP2;ratioP2;P2;SDS_P1;SDS_P2;PMS_P1;PMS_P2;Temp;Humidity;BMP_temperature;BMP_pressure;BME280_temperature;BME280_humidity;BME280_pressure;Samples;Min_cycle;Max_cycle;Signal;HPM_P1;HPM_P2
2022/10/25 00:00:01;;;;;;;2.40;0.50;;;;;;;14.14;75.00;99587.78;343733;28;1870;-79
2022/10/25 00:00:13;;;;;;;2.70;0.60;;;;;;;14.10;75.00;99599.31;343856;28;1072;-80
2022/10/25 00:00:25;;;;;;;2.22;0.60;;;;;;;14.08;75.22;99594.16;343751;28;1080;-80
2022/10/25 00:00:40;;;;;;;1.30;0.70;;;;;;;14.09;75.08;99597.66;343976;28;1064;-80
2022/10/25 00:00:52;;;;;;;0.82;0.57;;;;;;;14.05;75.67;99593.47;343893;28;1035;-80
2022/10/25 00:01:04;;;;;;;1.42;0.52;;;;;;;14.06;75.76;99600.38;343817;28;1269;-80
2022/10/25 00:01:16;;;;;;;1.88;0.55;;;;;;;14.08;75.72;99590.72;344186;28;1024;-80
2022/10/25 00:01:33;;;;;;;2.15;0.60;;;;;;;14.10;75.50;99596.72;343762;28;1127;-80
2022/10/25 00:01:46;;;;;;;2.53;0.70;;;;;;;14.07;75.98;99599.47;343596;28;1128;-81
2022/10/25 00:01:58;;;;;;;2.33;0.65;;;;;;;14.07;75.96;99586.41;344208;28;1008;-81
2022/10/25 00:02:20;;;;;;;1.58;0.60;;;;;;;14.05;75.94;99599.56;343949;28;1062;-82
2022/10/25 00:02:35;;;;;;;2.72;0.60;;;;;;;14.03;75.84;99601.38;342619;28;1071;-81
2022/10/25 00:02:47;;;;;;;2.95;0.57;;;;;;;14.03;75.98;99601.38;342526;28;1231;-81
2022/10/25 00:02:59;;;;;;;2.92;0.60;;;;;;;14.06;75.90;99601.22;342356;28;1173;-80
2022/10/25 00:03:12;;;;;;;1.75;0.60;;;;;;;14.05;75.95;99594.31;342788;28;994;-81
2022/10/25 00:03:24;;;;;;;2.20;0.60;;;;;;;14.06;75.93;99595.16;342686;28;1088;-80
2022/10/25 00:03:36;;;;;;;1.98;0.60;;;;;;;14.06;75.75;99597.78;342542;28;1170;-81
2022/10/25 00:03:47;;;;;;;1.98;0.68;;;;;;;14.04;75.81;99592.63;342495;28;1236;-81
2022/10/25 00:04:00;;;;;;;3.58;0.70;;;;;;;14.04;75.82;99597.00;342490;28;1237;-81
2022/10/25 00:04:12;;;;;;;2.53;0.60;;;;;;;14.04;75.66;99602.22;342523;28;1101;-81
2022/10/25 00:04:24;;;;;;;2.45;0.60;;;;;;;14.04;75.75;99586.56;342874;28;1126;-81
2022/10/25 00:04:36;;;;;;;2.83;0.60;;;;;;;14.04;75.63;99594.38;342396;28;1151;-82
2022/10/25 00:04:48;;;;;;;4.53;0.60;;;;;;;14.04;75.61;99597.00;342431;28;1185;-81
2022/10/25 00:05:00;;;;;;;4.05;0.65;;;;;;;14.03;75.59;99592.72;342525;28;1043;-80
2022/10/25 00:05:14;;;;;;;1.90;0.60;;;;;;;14.02;75.60;99604.06;342720;28;1074;-81
2022/10/25 00:05:26;;;;;;;1.10;0.55;;;;;;;14.01;75.79;99597.16;341158;29;1073;-81
2022/10/25 00:05:39;;;;;;;0.80;0.47;;;;;;;14.01;75.57;99589.31;341514;29;726;-81
2022/10/25 00:05:51;;;;;;;0.50;0.40;;;;;;;14.01;75.52;99603.22;341613;29;804;-81
2022/10/25 00:06:03;;;;;;;0.50;0.43;;;;;;;13.99;75.60;99600.69;341410;29;1055;-81
2022/10/25 00:06:16;;;;;;;1.55;0.50;;;;;;;14.00;75.50;99596.28;342038;28;1091;-81
2022/10/25 00:06:28;;;;;;;3.10;0.50;;;;;;;14.00;75.62;99596.28;342466;28;1177;-81
2022/10/25 00:06:40;;;;;;;3.55;0.50;;;;;;;13.99;75.59;99594.63;342537;28;1055;-81
2022/10/25 00:06:52;;;;;;;5.28;0.50;;;;;;;13.97;75.64;99597.31;342624;28;1084;-81
2022/10/25 00:07:04;;;;;;;3.80;0.60;;;;;;;13.96;75.58;99594.75;342458;28;1338;-80
2022/10/25 00:07:16;;;;;;;1.33;0.60;;;;;;;13.95;75.43;99593.91;343078;28;742;-81
2022/10/25 00:07:28;;;;;;;1.17;0.60;;;;;;;13.93;75.45;99590.53;343332;28;1248;-81
2022/10/25 00:07:40;;;;;;;0.90;0.50;;;;;;;13.92;75.56;99598.44;342945;28;1040;-81
2022/10/25 00:07:52;;;;;;;0.47;0.40;;;;;;;13.91;75.41;99591.53;342616;28;1052;-81
2022/10/25 00:08:04;;;;;;;0.77;0.50;;;;;;;13.90;75.42;99601.09;341464;29;1075;-81
2022/10/25 00:08:16;;;;;;;1.20;0.50;;;;;;;13.90;75.63;99600.25;341306;29;1247;-80
2022/10/25 00:08:28;;;;;;;2.83;0.50;;;;;;;13.88;75.45;99592.50;341506;29;742;-80
2022/10/25 00:08:40;;;;;;;2.78;0.52;;;;;;;13.87;75.65;99596.03;341463;29;1338;-81
2022/10/25 00:08:52;;;;;;;2.60;0.60;;;;;;;13.86;75.64;99593.50;340125;29;1058;-80
2022/10/25 00:09:04;;;;;;;2.50;0.60;;;;;;;13.84;75.76;99598.78;339841;29;1061;-81
2022/10/25 00:09:16;;;;;;;2.30;0.60;;;;;;;13.82;75.81;99595.41;339941;29;1076;-80
2022/10/25 00:09:28;;;;;;;2.03;0.50;;;;;;;13.81;76.01;99596.34;339643;29;1080;-81
2022/10/25 00:09:40;;;;;;;2.35;0.60;;;;;;;13.80;75.99;99592.00;338804;29;1046;-81
2022/10/25 00:09:52;;;;;;;2.17;0.60;;;;;;;13.80;75.91;99592.00;340290;29;1055;-81
2022/10/25 00:10:05;;;;;;;2.53;0.60;;;;;;;13.77;76.04;99590.41;340758;28;1048;-81
2022/10/25 00:10:17;;;;;;;2.45;0.60;;;;;;;13.78;76.17;99592.09;341608;29;1080;-81
2022/10/25 00:10:34;;;;;;;2.22;0.60;;;;;;;13.77;76.11;99584.34;341302;29;1316;-81
2022/10/25 00:10:46;;;;;;;1.48;0.52;;;;;;;13.77;76.06;99589.56;341161;29;1040;-81
2022/10/25 00:10:58;;;;;;;0.73;0.43;;;;;;;13.75;76.13;99586.16;342089;28;1329;-81
2022/10/25 00:11:22;;;;;;;2.35;0.40;;;;;;;13.72;76.23;99587.16;342770;28;1178;-81
2022/10/25 00:11:34;;;;;;;2.60;0.50;;;;;;;13.73;76.36;99590.63;343714;28;1085;-81
2022/10/25 00:11:45;;;;;;;2.10;0.60;;;;;;;13.74;76.47;99582.72;343620;28;1120;-81
2022/10/25 00:11:57;;;;;;;1.85;0.60;;;;;;;13.74;76.45;99587.06;343134;28;1046;-81
2022/10/25 00:12:09;;;;;;;1.02;0.60;;;;;;;13.75;76.41;99586.16;341960;28;1733;-81
2022/10/25 00:12:21;;;;;;;1.30;0.60;;;;;;;13.75;76.32;99586.16;342770;28;1269;-81
2022/10/25 00:12:35;;;;;;;2.53;0.60;;;;;;;13.74;76.44;99589.69;343972;28;1075;-81
2022/10/25 00:12:47;;;;;;;3.75;0.50;;;;;;;13.75;76.66;99587.00;342914;28;1173;-81
2022/10/25 00:12:59;;;;;;;3.70;0.60;;;;;;;13.75;76.51;99586.16;342948;28;753;-81
2022/10/25 00:13:11;;;;;;;1.95;0.50;;;;;;;13.76;76.40;99582.63;342642;28;1136;-81
2022/10/25 00:13:23;;;;;;;1.20;0.50;;;;;;;13.77;76.49;99579.09;342539;28;1161;-81
2022/10/25 00:13:35;;;;;;;2.00;0.47;;;;;;;13.79;76.35;99587.72;342497;28;1004;-81
2022/10/25 00:13:48;;;;;;;1.63;0.40;;;;;;;13.79;76.66;99587.72;343926;28;1105;-82
2022/10/25 00:14:04;;;;;;;0.68;0.43;;;;;;;13.79;76.21;99592.94;344039;28;1157;-81
2022/10/25 00:14:18;;;;;;;2.72;0.50;;;;;;;13.78;76.17;99586.88;343765;28;1080;-81
2022/10/25 00:14:30;;;;;;;3.13;0.60;;;;;;;13.77;76.24;99594.78;343903;28;1661;-81
2022/10/25 00:14:42;;;;;;;2.40;0.50;;;;;;;13.77;76.39;99595.63;344022;28;1051;-81
2022/10/25 00:14:54;;;;;;;4.53;0.60;;;;;;;13.75;76.48;99592.22;344119;28;1702;-81
2022/10/25 00:15:06;;;;;;;3.28;0.50;;;;;;;13.74;76.77;99593.16;344350;28;707;-81
2022/10/25 00:15:18;;;;;;;1.90;0.55;;;;;;;13.75;76.72;99588.78;344179;28;1072;-80
2022/10/25 00:15:30;;;;;;;1.70;0.50;;;;;;;13.77;76.82;99594.78;344233;28;1058;-81
2022/10/25 00:15:42;;;;;;;1.30;0.40;;;;;;;13.77;76.83;99590.41;343997;28;1544;-81
2022/10/25 00:15:54;;;;;;;2.00;0.40;;;;;;;13.78;76.93;99593.84;344088;28;1239;-80
2022/10/25 00:16:13;;;;;;;2.15;0.40;;;;;;;13.79;76.87;99595.56;343964;28;1123;-80
2022/10/25 00:16:31;;;;;;;1.48;0.50;;;;;;;13.80;77.04;99589.41;344367;28;873;-81
2022/10/25 00:16:43;;;;;;;1.33;0.50;;;;;;;13.82;77.12;99591.94;344977;28;1008;-81
2022/10/25 00:16:55;;;;;;;1.40;0.50;;;;;;;13.83;77.05;99589.28;344091;28;1226;-80
2022/10/25 00:17:07;;;;;;;1.63;0.50;;;;;;;13.85;76.85;99592.66;343802;28;1095;-81
2022/10/25 00:17:19;;;;;;;1.92;0.52;;;;;;;13.87;76.96;99593.44;343895;28;1544;-81
2022/10/25 00:17:30;;;;;;;2.13;0.60;;;;;;;13.88;76.80;99589.88;343975;28;1208;-80
2022/10/25 00:17:43;;;;;;;1.40;0.57;;;;;;;13.90;76.84;99590.66;344091;28;852;-81
2022/10/25 00:17:56;;;;;;;1.35;0.70;;;;;;;13.89;76.76;99588.97;344119;28;1079;-81
2022/10/25 00:18:08;;;;;;;1.30;0.60;;;;;;;13.87;76.92;99593.44;344165;28;1961;-81
2022/10/25 00:18:20;;;;;;;1.27;0.60;;;;;;;13.86;76.87;99583.88;343942;28;1118;-81
2022/10/25 00:18:32;;;;;;;1.60;0.52;;;;;;;13.88;76.78;99592.50;343927;28;1185;-81
2022/10/25 00:18:44;;;;;;;2.70;0.50;;;;;;;13.88;76.67;99589.88;343980;28;1185;-81
2022/10/25 00:18:56;;;;;;;2.30;0.47;;;;;;;13.88;76.98;99589.03;344023;28;1605;-81
2022/10/25 00:19:10;;;;;;;2.80;0.50;;;;;;;13.88;77.06;99592.50;343872;28;1505;-81
2022/10/25 00:19:22;;;;;;;3.28;0.60;;;;;;;13.87;77.26;99590.81;343875;28;1078;-80
2022/10/25 00:19:34;;;;;;;2.78;0.60;;;;;;;13.90;77.22;99587.19;343945;28;1056;-81
2022/10/25 00:19:46;;;;;;;1.65;0.60;;;;;;;13.91;77.19;99592.38;343797;28;1112;-81
2022/10/25 00:19:58;;;;;;;1.55;0.50;;;;;;;13.92;77.06;99588.84;343872;28;1202;-80
2022/10/25 00:20:10;;;;;;;3.42;0.57;;;;;;;13.93;77.30;99590.53;343531;28;955;-80
2022/10/25 00:20:22;;;;;;;3.38;0.60;;;;;;;13.92;77.12;99594.06;343877;28;1008;-80
2022/10/25 00:20:35;;;;;;;4.72;0.60;;;;;;;13.90;77.42;99590.66;344286;28;987;-81
2022/10/25 00:20:47;;;;;;;2.67;0.60;;;;;;;13.92;77.66;99587.97;344003;28;1232;-81
2022/10/25 00:21:03;;;;;;;1.35;0.60;;;;;;;13.92;77.57;99593.19;343983;28;1362;-81
2022/10/25 00:21:15;;;;;;;1.75;0.60;;;;;;;13.90;77.71;99588.03;343861;28;982;-80
2022/10/25 00:21:27;;;;;;;3.08;0.60;;;;;;;13.88;77.75;99589.88;343796;28;1132;-81
2022/10/25 00:21:39;;;;;;;3.63;0.60;;;;;;;13.90;77.54;99590.66;343819;28;1155;-80
2022/10/25 00:21:51;;;;;;;3.58;0.55;;;;;;;13.92;77.62;99593.19;343664;28;1282;-81
2022/10/25 00:22:03;;;;;;;2.15;0.40;;;;;;;13.93;77.40;99590.53;343657;28;1163;-81
2022/10/25 00:22:15;;;;;;;2.13;0.50;;;;;;;13.93;77.44;99590.53;343533;28;1044;-81
2022/10/25 00:22:27;;;;;;;1.67;0.55;;;;;;;13.96;77.35;99585.16;343625;28;1051;-81
2022/10/25 00:22:40;;;;;;;1.70;0.60;;;;;;;13.94;77.07;99589.63;344861;28;1020;-81
2022/10/25 00:22:52;;;;;;;1.05;0.57;;;;;;;13.92;76.65;99583.63;344280;28;876;-81
2022/10/25 00:23:04;;;;;;;0.88;0.60;;;;;;;13.93;76.60;99589.69;344165;28;1262;-81
2022/10/25 00:23:15;;;;;;;2.33;0.60;;;;;;;13.90;76.32;99589.81;344079;28;1254;-81
2022/10/25 00:23:27;;;;;;;3.55;0.70;;;;;;;13.89;76.38;99588.13;342503;28;1170;-81
2022/10/25 00:23:39;;;;;;;3.83;0.65;;;;;;;13.89;76.28;99594.19;342435;28;1275;-82
2022/10/25 00:23:52;;;;;;;3.58;0.60;;;;;;;13.91;76.39;99592.38;342598;28;1051;-82
2022/10/25 00:24:04;;;;;;;2.90;0.68;;;;;;;13.87;76.30;99585.59;342734;28;1094;-81
2022/10/25 00:24:16;;;;;;;2.13;0.73;;;;;;;13.83;76.07;99593.66;341441;29;1090;-80
2022/10/25 00:24:28;;;;;;;1.40;0.70;;;;;;;13.79;75.93;99592.94;341250;29;1265;-81
2022/10/25 00:24:40;;;;;;;1.17;0.60;;;;;;;13.81;75.99;99591.09;341167;28;1187;-81
2022/10/25 00:24:51;;;;;;;2.28;0.60;;;;;;;13.84;76.23;99590.09;341475;28;1177;-81
2022/10/25 00:25:05;;;;;;;2.92;0.60;;;;;;;13.77;76.04;99584.34;342765;28;1172;-81
2022/10/25 00:25:18;;;;;;;2.60;0.60;;;;;;;13.76;76.15;99593.94;342874;28;786;-81
2022/10/25 00:25:30;;;;;;;3.28;0.60;;;;;;;13.77;76.15;99582.56;342662;28;1006;-81
2022/10/25 00:25:43;;;;;;;2.80;0.60;;;;;;;13.78;75.96;99592.09;343118;28;733;-81
2022/10/25 00:26:03;;;;;;;2.08;0.50;;;;;;;13.75;76.00;99588.78;342696;28;1224;-80
2022/10/25 00:26:15;;;;;;;2.10;0.57;;;;;;;13.74;76.14;99584.47;342655;28;1024;-81
2022/10/25 00:26:27;;;;;;;1.88;0.57;;;;;;;13.73;76.31;99598.47;342611;28;1091;-80
2022/10/25 00:26:40;;;;;;;1.42;0.55;;;;;;;13.73;76.26;99593.22;342804;28;1125;-80
2022/10/25 00:26:52;;;;;;;1.00;0.47;;;;;;;13.73;76.51;99588.00;342507;28;1087;-80
2022/10/25 00:27:04;;;;;;;1.40;0.43;;;;;;;13.70;76.29;99593.34;342459;28;1150;-81
2022/10/25 00:27:16;;;;;;;1.17;0.50;;;;;;;13.72;76.41;99584.56;342471;28;1088;-80
2022/10/25 00:27:28;;;;;;;1.67;0.60;;;;;;;13.76;76.74;99593.06;342419;28;1081;-80
2022/10/25 00:27:40;;;;;;;2.55;0.82;;;;;;;13.74;76.24;99590.56;342357;28;1189;-81
2022/10/25 00:27:52;;;;;;;2.45;0.80;;;;;;;13.76;76.31;99595.69;342563;28;1131;-81
2022/10/25 00:28:04;;;;;;;2.78;0.80;;;;;;;13.76;76.31;99590.47;342402;28;1860;-81
2022/10/25 00:28:16;;;;;;;2.58;0.60;;;;;;;13.78;76.24;99588.63;341587;29;810;-81
2022/10/25 00:28:28;;;;;;;2.35;0.60;;;;;;;13.82;76.49;99597.16;342538;28;1516;-80
2022/10/25 00:28:40;;;;;;;1.20;0.70;;;;;;;13.84;76.34;99595.34;343928;28;1084;-81
2022/10/25 00:28:54;;;;;;;1.60;0.60;;;;;;;13.86;76.37;99589.09;343866;28;1063;-81
2022/10/25 00:29:07;;;;;;;1.42;0.60;;;;;;;13.86;76.03;99593.50;344430;28;1088;-81
2022/10/25 00:29:19;;;;;;;0.95;0.63;;;;;;;13.89;76.23;99591.59;345320;28;1136;-81
2022/10/25 00:29:31;;;;;;;0.98;0.50;;;;;;;13.91;76.12;99591.53;345124;28;1156;-80
2022/10/25 00:29:43;;;;;;;1.10;0.43;;;;;;;13.93;76.01;99590.53;345295;28;1034;-80
2022/10/25 00:29:55;;;;;;;1.90;0.55;;;;;;;13.93;75.95;99590.53;345091;28;1063;-80
2022/10/25 00:30:07;;;;;;;1.92;0.57;;;;;;;13.95;75.85;99588.69;345109;28;1020;-80
2022/10/25 00:30:19;;;;;;;1.83;0.45;;;;;;;13.97;75.90;99591.22;345493;28;857;-81
2022/10/25 00:30:31;;;;;;;1.00;0.40;;;;;;;13.97;75.68;99592.06;343958;28;933;-80
2022/10/25 00:30:43;;;;;;;1.70;0.60;;;;;;;13.96;75.60;99595.63;344030;28;1146;-82
2022/10/25 00:31:09;;;;;;;1.75;0.65;;;;;;;13.95;75.63;99593.91;344039;28;1079;-81
2022/10/25 00:31:22;;;;;;;0.73;0.40;;;;;;;13.90;75.59;99593.25;343920;28;1091;-80
2022/10/25 00:31:36;;;;;;;0.50;0.40;;;;;;;13.87;75.71;99595.19;342880;28;1142;-81
2022/10/25 00:31:48;;;;;;;1.25;0.52;;;;;;;13.89;75.79;99588.97;343006;28;1232;-82
2022/10/25 00:31:59;;;;;;;2.10;0.50;;;;;;;13.90;75.69;99590.66;342440;28;1078;-82
2022/10/25 00:32:11;;;;;;;1.90;0.50;;;;;;;13.87;75.83;99590.81;342470;28;1209;-82
2022/10/25 00:32:23;;;;;;;0.77;0.50;;;;;;;13.88;75.59;99587.28;342529;28;1173;-81
2022/10/25 00:32:35;;;;;;;0.80;0.57;;;;;;;13.89;75.87;99588.97;343475;28;1092;-81
2022/10/25 00:32:51;;;;;;;0.73;0.60;;;;;;;13.90;76.10;99590.66;343970;28;1097;-83
2022/10/25 00:33:03;;;;;;;0.45;0.43;;;;;;;13.90;75.83;99590.66;344057;28;1163;-81
2022/10/25 00:33:15;;;;;;;1.70;0.60;;;;;;;13.91;75.67;99596.75;344292;28;853;-81
2022/10/25 00:33:31;;;;;;;1.70;0.60;;;;;;;13.93;75.59;99594.91;343918;28;1063;-81
2022/10/25 00:33:44;;;;;;;2.10;0.50;;;;;;;13.92;75.96;99587.97;344028;28;1083;-80
2022/10/25 00:33:56;;;;;;;2.20;0.50;;;;;;;13.91;75.82;99592.38;343919;28;1135;-80
2022/10/25 00:34:08;;;;;;;2.60;0.50;;;;;;;13.90;75.67;99590.66;344166;28;1030;-81
2022/10/25 00:34:20;;;;;;;1.80;0.50;;;;;;;13.89;75.87;99590.75;343998;28;1072;-81
2022/10/25 00:34:32;;;;;;;3.47;0.60;;;;;;;13.88;75.99;99596.88;343923;28;989;-81
2022/10/25 00:34:44;;;;;;;3.80;0.60;;;;;;;13.87;75.94;99588.19;343859;28;1212;-81
2022/10/25 00:34:56;;;;;;;3.60;0.60;;;;;;;13.88;76.26;99587.28;343667;28;1076;-81
2022/10/25 00:35:08;;;;;;;3.00;0.63;;;;;;;13.90;76.17;99595.03;344003;28;742;-82
2022/10/25 00:35:20;;;;;;;2.15;0.60;;;;;;;13.93;76.08;99595.75;344073;28;934;-81
2022/10/25 00:35:35;;;;;;;1.73;0.50;;;;;;;13.95;76.24;99593.91;343939;28;1274;-81
2022/10/25 00:35:47;;;;;;;1.08;0.50;;;;;;;13.98;76.00;99593.78;343923;28;1143;-80
2022/10/25 00:36:06;;;;;;;1.55;0.57;;;;;;;14.02;76.05;99583.16;343830;28;1171;-80
2022/10/25 00:36:21;;;;;;;1.38;0.52;;;;;;;14.04;75.99;99591.78;343751;28;1210;-81
2022/10/25 00:36:33;;;;;;;1.90;0.50;;;;;;;14.09;76.08;99595.03;343957;28;1022;-80
2022/10/25 00:36:45;;;;;;;3.05;0.57;;;;;;;14.10;76.06;99581.03;344041;28;1246;-80
2022/10/25 00:36:57;;;;;;;2.17;0.55;;;;;;;14.11;75.91;99587.97;343852;28;1076;-80
2022/10/25 00:37:09;;;;;;;1.55;0.50;;;;;;;14.12;76.19;99590.47;343873;28;1239;-81
2022/10/25 00:37:21;;;;;;;1.63;0.60;;;;;;;14.15;76.35;99584.28;342787;28;1299;-81
2022/10/25 00:37:34;;;;;;;2.00;0.60;;;;;;;14.16;76.22;99588.56;343911;28;1323;-80
2022/10/25 00:37:46;;;;;;;1.80;0.60;;;;;;;14.19;76.16;99591.06;343945;28;1319;-81
2022/10/25 00:37:59;;;;;;;1.50;0.52;;;;;;;14.21;75.76;99589.22;343893;28;1087;-81
2022/10/25 00:38:11;;;;;;;0.95;0.50;;;;;;;14.23;75.86;99592.59;342930;28;1168;-80
2022/10/25 00:38:23;;;;;;;1.40;0.50;;;;;;;14.21;75.58;99594.44;342568;28;1059;-80
2022/10/25 00:38:36;;;;;;;1.58;0.50;;;;;;;14.22;75.40;99590.88;342917;28;1035;-80
2022/10/25 00:38:47;;;;;;;1.27;0.40;;;;;;;14.22;75.26;99585.66;341691;28;1026;-81
2022/10/25 00:38:59;;;;;;;1.25;0.47;;;;;;;14.18;75.17;99589.34;341158;29;1188;-81
2022/10/25 00:39:11;;;;;;;2.65;0.60;;;;;;;14.17;75.28;99588.50;341185;29;1220;-80
2022/10/25 00:39:23;;;;;;;3.05;0.60;;;;;;;14.17;75.40;99585.06;341373;28;1069;-81
2022/10/25 00:39:35;;;;;;;2.80;0.50;;;;;;;14.17;75.36;99595.50;341443;28;1042;-81
2022/10/25 00:39:47;;;;;;;2.07;0.50;;;;;;;14.19;75.38;99591.06;341086;29;1098;-80
2022/10/25 00:39:59;;;;;;;2.83;0.50;;;;;;;14.20;75.39;99587.50;341224;28;1906;-81
2022/10/25 00:40:11;;;;;;;3.05;0.60;;;;;;;14.19;75.35;99591.06;341045;29;1094;-81
2022/10/25 00:40:23;;;;;;;2.78;0.60;;;;;;;14.14;75.33;99593.03;341334;29;1111;-81
2022/10/25 00:40:35;;;;;;;2.55;0.60;;;;;;;14.16;75.32;99597.25;341392;29;1111;-81
2022/10/25 00:40:47;;;;;;;3.55;0.60;;;;;;;14.16;75.40;99589.41;341602;28;1104;-80
2022/10/25 00:40:59;;;;;;;3.08;0.50;;;;;;;14.18;75.19;99589.34;342449;28;1388;-81
2022/10/25 00:41:17;;;;;;;2.08;0.50;;;;;;;14.18;75.32;99589.34;342966;28;1022;-81
2022/10/25 00:41:32;;;;;;;3.60;0.77;;;;;;;14.22;75.30;99590.88;343537;28;1255;-80
2022/10/25 00:41:44;;;;;;;4.13;0.80;;;;;;;14.25;75.16;99590.75;343747;28;1096;-81
2022/10/25 00:41:56;;;;;;;2.97;0.70;;;;;;;14.26;75.18;99592.44;344052;28;1054;-81
2022/10/25 00:42:23;;;;;;;2.10;0.60;;;;;;;14.26;75.44;99591.59;344042;28;1172;-81
2022/10/25 00:42:35;;;;;;;1.30;0.65;;;;;;;14.29;75.24;99589.69;343837;28;1234;-80
2022/10/25 00:42:47;;;;;;;0.60;0.60;;;;;;;14.31;75.13;99595.69;344040;28;1031;-80
2022/10/25 00:42:59;;;;;;;0.50;0.50;;;;;;;14.34;75.19;99590.28;343863;28;1206;-81
2022/10/25 00:43:37;;;;;;;1.52;0.50;;;;;;;14.38;75.24;99591.81;344220;28;869;-82
2022/10/25 00:43:51;;;;;;;1.10;0.73;;;;;;;14.39;74.81;99593.53;344073;28;1095;-81
2022/10/25 00:44:35;;;;;;;1.95;0.80;;;;;;;14.43;74.95;99589.00;344295;28;778;-81
2022/10/25 00:44:49;;;;;;;2.90;0.60;;;;;;;14.47;74.85;99589.69;343876;28;1212;-81
2022/10/25 00:45:11;;;;;;;3.50;0.60;;;;;;;14.49;74.89;99587.84;343826;28;1047;-81
2022/10/25 00:45:27;;;;;;;1.92;0.55;;;;;;;14.51;74.71;99593.84;343802;28;1112;-80
2022/10/25 00:45:38;;;;;;;2.35;0.60;;;;;;;14.51;75.10;99586.00;344144;28;914;-81
2022/10/25 00:45:50;;;;;;;2.47;0.60;;;;;;;14.52;75.10;99585.06;343763;28;929;-81
2022/10/25 00:46:26;;;;;;;3.25;0.70;;;;;;;14.48;75.68;99587.00;344036;28;1050;-80
2022/10/25 00:46:37;;;;;;;2.45;0.70;;;;;;;14.51;75.98;99586.00;343780;28;942;-81
2022/10/25 00:46:50;;;;;;;3.10;0.90;;;;;;;14.51;75.74;99586.00;342781;28;1160;-81
2022/10/25 00:47:13;;;;;;;2.88;0.80;;;;;;;14.53;75.70;99586.78;342581;28;1183;-81
2022/10/25 00:47:41;;;;;;;2.33;0.52;;;;;;;14.56;75.78;99589.25;341911;28;1087;-81
2022/10/25 00:48:00;;;;;;;2.03;0.60;;;;;;;14.54;75.03;99585.84;341391;29;1026;-81
2022/10/25 00:48:14;;;;;;;1.25;0.68;;;;;;;14.51;74.85;99588.63;342664;28;1305;-81
2022/10/25 00:48:27;;;;;;;1.50;0.70;;;;;;;14.50;74.94;99585.16;341364;28;1019;-81
2022/10/25 00:48:42;;;;;;;2.88;0.70;;;;;;;14.53;75.07;99589.41;341347;29;1102;-81
2022/10/25 00:49:01;;;;;;;3.90;0.77;;;;;;;14.54;75.44;99593.69;342699;28;908;-81
2022/10/25 00:49:17;;;;;;;2.63;0.60;;;;;;;14.56;75.04;99582.25;342419;28;1087;-81
2022/10/25 00:49:31;;;;;;;1.55;0.50;;;;;;;14.57;75.45;99588.34;342826;28;1277;-81
2022/10/25 00:49:51;;;;;;;1.77;0.63;;;;;;;14.55;75.56;99582.31;342950;28;1071;-81
2022/10/25 00:50:33;;;;;;;3.20;0.75;;;;;;;14.54;75.65;99583.22;342421;28;1100;-80
2022/10/25 00:50:52;;;;;;;1.40;0.65;;;;;;;14.56;75.76;99586.66;342747;28;1092;-81
2022/10/25 00:51:04;;;;;;;2.67;0.70;;;;;;;14.54;76.15;99588.47;342651;28;1323;-81
2022/10/25 00:51:16;;;;;;;4.55;0.85;;;;;;;14.53;75.79;99589.41;342851;28;783;-81
2022/10/25 00:51:35;;;;;;;5.32;1.00;;;;;;;14.52;75.77;99592.91;342162;28;1168;-82
2022/10/25 00:51:58;;;;;;;6.25;1.02;;;;;;;14.51;76.08;99586.00;342053;28;1256;-81
2022/10/25 00:52:10;;;;;;;3.17;0.73;;;;;;;14.50;76.05;99597.38;342402;28;1223;-82
2022/10/25 00:52:23;;;;;;;1.75;0.68;;;;;;;14.48;76.32;99591.38;342664;28;1065;-81
2022/10/25 00:52:37;;;;;;;1.73;0.73;;;;;;;14.49;76.40;99590.47;342645;28;1188;-81
2022/10/25 00:52:53;;;;;;;3.28;0.82;;;;;;;14.47;76.16;99584.47;343516;28;1107;-81
2022/10/25 00:53:09;;;;;;;2.97;0.75;;;;;;;14.46;76.37;99598.47;343819;28;1044;-81
2022/10/25 00:53:29;;;;;;;2.08;0.80;;;;;;;14.47;76.06;99595.78;344096;28;1105;-81
2022/10/25 00:53:41;;;;;;;4.63;0.90;;;;;;;14.47;76.12;99590.53;343801;28;929;-81
2022/10/25 00:53:54;;;;;;;3.88;0.75;;;;;;;14.46;76.27;99594.06;344244;28;745;-81
2022/10/25 00:54:09;;;;;;;2.25;0.70;;;;;;;14.47;76.25;99589.69;344070;28;1067;-81
2022/10/25 00:54:28;;;;;;;2.92;0.70;;;;;;;14.43;76.27;99598.59;343819;28;935;-81
2022/10/25 00:54:45;;;;;;;4.05;0.88;;;;;;;14.42;76.41;99589.06;344107;28;1459;-81
2022/10/25 00:54:58;;;;;;;3.75;0.88;;;;;;;14.42;76.20;99594.31;344060;28;1348;-81
2022/10/25 00:55:15;;;;;;;3.70;0.73;;;;;;;14.42;75.94;99591.69;343827;28;1043;-82
2022/10/25 00:55:27;;;;;;;2.25;0.80;;;;;;;14.43;75.98;99593.38;342604;28;1206;-81
2022/10/25 00:55:45;;;;;;;1.60;0.80;;;;;;;14.43;75.74;99593.38;342668;28;1100;-81
2022/10/25 00:56:08;;;;;;;2.00;0.70;;;;;;;14.41;76.09;99589.97;343472;28;1100;-81
2022/10/25 00:56:24;;;;;;;2.83;0.80;;;;;;;14.41;76.23;99595.22;343910;28;1255;-81
2022/10/25 00:56:40;;;;;;;1.75;0.82;;;;;;;14.38;76.17;99589.22;344039;28;1079;-82
2022/10/25 00:56:53;;;;;;;3.08;0.80;;;;;;;14.42;76.11;99596.91;344179;28;1070;-82
2022/10/25 00:57:14;;;;;;;4.30;0.70;;;;;;;14.43;76.14;99593.38;343837;28;1095;-80
2022/10/25 00:57:33;;;;;;;3.50;0.80;;;;;;;14.43;76.05;99594.22;343944;28;1051;-82
2022/10/25 00:57:55;;;;;;;1.63;0.80;;;;;;;14.47;75.54;99600.16;343880;28;1099;-81
2022/10/25 00:58:11;;;;;;;2.65;0.75;;;;;;;14.46;75.46;99594.06;343647;28;1132;-81
2022/10/25 00:58:27;;;;;;;1.85;0.93;;;;;;;14.43;75.32;99593.38;344237;28;865;-81
2022/10/25 00:58:42;;;;;;;1.77;0.82;;;;;;;14.41;75.00;99601.31;344025;28;1083;-81
2022/10/25 00:58:57;;;;;;;2.38;0.90;;;;;;;14.39;75.17;99598.75;343901;28;1107;-81
2022/10/25 00:59:13;;;;;;;3.00;1.00;;;;;;;14.38;74.86;99602.28;344212;28;916;-80
2022/10/25 00:59:26;;;;;;;3.30;0.90;;;;;;;14.39;74.76;99598.75;342749;28;1215;-81
2022/10/25 00:59:38;;;;;;;2.90;0.80;;;;;;;14.39;74.93;99592.69;342691;28;1111;-81
2022/10/25 00:59:51;;;;;;;1.98;0.70;;;;;;;14.39;74.84;99593.53;342329;28;1021;-81
2022/10/25 01:00:04;;;;;;;2.50;0.88;;;;;;;14.37;75.15;99595.38;342591;28;1040;-81
2022/10/25 01:00:16;;;;;;;2.20;0.98;;;;;;;14.39;75.11;99601.38;342936;28;861;-81
2022/10/25 01:00:28;;;;;;;4.10;0.90;;;;;;;14.42;75.22;99604.75;343462;28;1032;-81
2022/10/25 01:00:42;;;;;;;5.10;0.90;;;;;;;14.43;75.39;99603.81;343848;28;1042;-80
2022/10/25 01:00:55;;;;;;;3.55;0.85;;;;;;;14.45;75.28;99596.78;343805;28;1106;-81
2022/10/25 01:01:08;;;;;;;2.37;0.80;;;;;;;14.47;75.24;99600.16;343840;28;1477;-81
2022/10/25 01:01:22;;;;;;;1.42;0.73;;;;;;;14.47;75.13;99594.94;343825;28;1079;-81
2022/10/25 01:01:36;;;;;;;2.20;0.80;;;;;;;14.49;75.09;99598.31;343975;28;1218;-81
2022/10/25 01:01:48;;;;;;;2.63;0.82;;;;;;;14.50;74.94;99594.75;342966;28;1372;-80
2022/10/25 01:02:00;;;;;;;2.58;0.80;;;;;;;14.51;75.04;99601.72;342600;28;1024;-80
2022/10/25 01:02:13;;;;;;;1.88;0.70;;;;;;;14.49;75.43;99603.56;342243;28;1023;-81
2022/10/25 01:02:26;;;;;;;2.28;0.70;;;;;;;14.49;75.68;99603.56;342696;28;1043;-81
2022/10/25 01:02:38;;;;;;;2.83;0.80;;;;;;;14.49;75.78;99598.31;342715;28;1047;-80
2022/10/25 01:02:51;;;;;;;3.75;0.80;;;;;;;14.50;75.70;99600.00;342637;28;951;-81
2022/10/25 01:03:05;;;;;;;5.03;0.80;;;;;;;14.50;75.57;99600.00;344030;28;1047;-80
2022/10/25 01:03:21;;;;;;;5.05;0.80;;;;;;;14.50;75.96;99600.00;343895;28;1051;-81
2022/10/25 01:03:37;;;;;;;4.25;0.90;;;;;;;14.51;75.92;99597.31;344062;28;1647;-81
2022/10/25 01:03:53;;;;;;;2.33;0.80;;;;;;;14.51;75.78;99599.94;343925;28;1320;-80
2022/10/25 01:04:08;;;;;;;1.60;0.80;;;;;;;14.51;75.69;99596.47;342741;28;1253;-80
2022/10/25 01:04:25;;;;;;;2.80;1.00;;;;;;;14.48;75.86;99604.47;342686;28;1238;-82
2022/10/25 01:04:37;;;;;;;5.45;1.10;;;;;;;14.45;76.02;99602.84;342443;28;1044;-81
2022/10/25 01:04:50;;;;;;;4.70;1.00;;;;;;;14.46;76.00;99599.28;342163;28;1044;-80
2022/10/25 01:05:02;;;;;;;4.05;1.00;;;;;;;14.44;76.10;99595.06;341570;28;1059;-80
2022/10/25 01:05:15;;;;;;;3.53;0.90;;;;;;;14.45;76.17;99596.78;340997;29;1073;-80
2022/10/25 01:05:27;;;;;;;4.43;0.90;;;;;;;14.43;76.11;99598.59;341539;28;1234;-80
2022/10/25 01:05:40;;;;;;;5.38;0.93;;;;;;;14.45;76.27;99599.41;341320;28;1345;-80
2022/10/25 01:05:52;;;;;;;4.20;0.88;;;;;;;14.47;76.20;99602.78;341104;29;1037;-81
2022/10/25 01:06:09;;;;;;;2.80;0.80;;;;;;;14.42;76.11;99597.75;341579;28;1055;-80
2022/10/25 01:06:31;;;;;;;1.92;0.70;;;;;;;14.43;76.11;99598.59;343120;28;1144;-81
2022/10/25 01:06:49;;;;;;;2.15;0.77;;;;;;;14.38;76.26;99597.06;342695;28;1244;-80